Time;durP1;ratioP1;P1;durP2;ratioP2;P2;SDS_P1;SDS_P2;PMS_P1;PMS_P2;Temp;Humidity;BMP_temperature;BMP_pressure;BME280_temperature;BME280_humidity;BME280_pressure;Samples;Min_cycle;Max_cycle;Signal;HPM_P1;HPM_P2
2024/03/04 00:01:32;;;;;;;2.55;0.90;;;;;;;;;;6295611;28;24414;-81
2024/03/04 00:04:42;;;;;;;2.17;0.70;;;;;;;;;;6300862;28;24467;-81
2024/03/04 00:07:50;;;;;;;22.20;11.30;;;;;;;;;;6296211;28;24418;-82
2024/03/04 00:10:52;;;;;;;74.97;34.25;;;;;;;;;;6293586;28;24415;-82
2024/03/04 00:13:54;;;;;;;108.10;51.95;;;;;;;;;;6305343;28;24409;-85
2024/03/04 00:17:03;;;;;;;17.80;7.20;;;;;;;;;;6300668;28;24425;-83
2024/03/04 00:20:09;;;;;;;93.57;39.88;;;;;;;;;;6298614;28;24427;-82
2024/03/04 00:23:11;;;;;;;3.85;1.65;;;;;;;;;;6295604;28;24419;-82
2024/03/04 00:26:15;;;;;;;19.20;9.38;;;;;;;;;;6303224;28;24418;-83
2024/03/04 00:29:28;;;;;;;19.83;10.13;;;;;;;;;;6321730;28;24456;-84
2024/03/04 00:32:30;;;;;;;2.65;1.10;;;;;;;;;;6316653;28;24424;-82
2024/03/04 00:35:34;;;;;;;2.40;1.00;;;;;;;;;;6310949;28;24425;-82
2024/03/04 00:38:36;;;;;;;2.67;0.80;;;;;;;;;;6317426;28;24426;-81
2024/03/04 00:42:02;;;;;;;2.00;0.80;;;;;;;;;;6320713;28;24486;-82
2024/03/04 00:45:05;;;;;;;2.50;0.90;;;;;;;;;;6311700;28;24513;-80
2024/03/04 00:48:08;;;;;;;4.07;1.10;;;;;;;;;;6320419;28;24438;-81
2024/03/04 00:51:28;;;;;;;3.13;1.30;;;;;;;;;;6294006;28;24567;-81
2024/03/04 00:54:43;;;;;;;2.80;1.10;;;;;;;;;;6317478;28;24660;-80
2024/03/04 00:58:02;;;;;;;3.83;1.60;;;;;;;;;;6323223;28;25140;-81
2024/03/04 01:01:05;;;;;;;3.00;1.20;;;;;;;;;;6327943;28;24472;-81
2024/03/04 01:10:46;;;;;;;3.50;1.20;;;;;;;;;;6301750;28;24470;-81
2024/03/04 01:13:56;;;;;;;4.43;1.40;;;;;;;;;;6321001;28;24581;-81
2024/03/04 01:17:00;;;;;;;3.88;1.10;;;;;;;;;;6323997;28;24417;-81
2024/03/04 01:20:02;;;;;;;2.08;1.05;;;;;;;;;;6322878;28;24422;-81
2024/03/04 01:23:11;;;;;;;3.58;1.20;;;;;;;;;;6318386;28;24437;-82
2024/03/04 01:26:14;;;;;;;3.07;1.10;;;;;;;;;;6318948;28;24419;-83
2024/03/04 01:29:22;;;;;;;3.38;1.30;;;;;;;;;;6324578;28;24837;-82
2024/03/04 01:32:27;;;;;;;3.53;1.08;;;;;;;;;;6309473;28;24423;-83
2024/03/04 01:35:35;;;;;;;3.07;0.97;;;;;;;;;;6320915;28;25004;-82
2024/03/04 01:38:43;;;;;;;2.97;0.93;;;;;;;;;;6319881;28;24917;-81
2024/03/04 01:49:06;;;;;;;2.63;1.13;;;;;;;;;;6290928;28;24418;-81
2024/03/04 01:52:23;;;;;;;2.22;1.10;;;;;;;;;;6321330;28;24951;-81
2024/03/04 01:55:34;;;;;;;6.22;1.60;;;;;;;;;;6313395;28;25193;-81
2024/03/04 01:58:47;;;;;;;4.43;1.50;;;;;;;;;;6317684;28;24479;-81
2024/03/04 02:01:50;;;;;;;2.13;1.30;;;;;;;;;;6312827;28;24684;-81
2024/03/04 02:04:52;;;;;;;2.27;1.33;;;;;;;;;;6317333;28;24823;-81
2024/03/04 02:07:54;;;;;;;4.05;1.50;;;;;;;;;;6317418;28;24828;-82
2024/03/04 02:10:57;;;;;;;3.75;1.40;;;;;;;;;;6322246;28;24608;-82
2024/03/04 02:13:59;;;;;;;4.20;1.60;;;;;;;;;;6309460;28;24422;-81
2024/03/04 02:17:01;;;;;;;4.25;1.73;;;;;;;;;;6318389;28;24889;-81
2024/03/04 02:20:05;;;;;;;3.50;1.60;;;;;;;;;;6321207;28;24498;-81
2024/03/04 02:23:09;;;;;;;6.05;1.70;;;;;;;;;;6318236;28;24506;-81
2024/03/04 02:26:11;;;;;;;4.93;1.90;;;;;;;;;;6321833;28;24407;-82
2024/03/04 02:29:13;;;;;;;6.68;1.73;;;;;;;;;;6321865;28;25159;-82
2024/03/04 02:32:15;;;;;;;5.87;2.10;;;;;;;;;;6315693;28;24445;-81
2024/03/04 02:35:17;;;;;;;3.97;1.80;;;;;;;;;;6325351;28;24420;-83
2024/03/04 02:38:20;;;;;;;5.00;1.50;;;;;;;;;;6323643;28;24441;-81
2024/03/04 02:41:22;;;;;;;4.22;1.20;;;;;;;;;;6322656;28;24434;-80
2024/03/04 02:44:24;;;;;;;4.60;1.60;;;;;;;;;;6319996;28;24677;-82
2024/03/04 02:47:26;;;;;;;6.32;1.52;;;;;;;;;;6314339;28;24598;-80
2024/03/04 02:50:27;;;;;;;2.90;1.50;;;;;;;;;;6318175;28;24455;-79
2024/03/04 02:53:31;;;;;;;4.45;1.50;;;;;;;;;;6315539;28;24493;-83
2024/03/04 02:56:33;;;;;;;3.35;1.55;;;;;;;;;;6321648;28;24438;-83
2024/03/04 02:59:34;;;;;;;3.78;1.40;;;;;;;;;;6321105;28;24500;-82
2024/03/04 03:02:37;;;;;;;2.13;1.20;;;;;;;;;;6318283;28;24421;-81
2024/03/04 03:05:39;;;;;;;3.37;1.10;;;;;;;;;;6317838;28;24442;-79
2024/03/04 03:08:42;;;;;;;3.10;1.27;;;;;;;;;;6326314;28;24859;-82
2024/03/04 03:11:44;;;;;;;2.58;1.15;;;;;;;;;;6323435;28;24614;-82
2024/03/04 03:14:45;;;;;;;2.00;0.88;;;;;;;;;;6320545;28;24414;-82
2024/03/04 03:17:47;;;;;;;2.47;1.10;;;;;;;;;;6320950;28;24424;-81
2024/03/04 03:20:49;;;;;;;2.70;1.23;;;;;;;;;;6313755;28;24433;-81
2024/03/04 03:23:52;;;;;;;3.38;1.10;;;;;;;;;;6312410;28;24517;-80
2024/03/04 03:26:56;;;;;;;2.58;1.15;;;;;;;;;;6317604;28;24430;-81
2024/03/04 03:29:58;;;;;;;3.80;1.20;;;;;;;;;;6310330;28;24419;-82
2024/03/04 03:33:00;;;;;;;1.30;1.00;;;;;;;;;;6312189;28;24430;-82
2024/03/04 03:36:05;;;;;;;3.05;1.05;;;;;;;;;;6318451;28;24422;-83
2024/03/04 03:39:14;;;;;;;1.77;0.85;;;;;;;;;;6317270;28;25061;-82
2024/03/04 03:42:16;;;;;;;2.10;0.82;;;;;;;;;;6292672;28;24494;-81
2024/03/04 03:45:18;;;;;;;2.67;0.70;;;;;;;;;;6317688;28;24420;-81
2024/03/04 03:48:20;;;;;;;2.53;0.90;;;;;;;;;;6316467;28;24414;-81
2024/03/04 03:51:22;;;;;;;1.75;0.80;;;;;;;;;;6317749;28;24468;-81
2024/03/04 03:54:25;;;;;;;0.82;0.70;;;;;;;;;;6320820;28;24415;-81
2024/03/04 03:57:27;;;;;;;2.45;0.90;;;;;;;;;;6319762;28;24418;-81
2024/03/04 04:00:30;;;;;;;1.85;0.75;;;;;;;;;;6323081;28;24424;-82
2024/03/04 04:03:33;;;;;;;1.50;0.90;;;;;;;;;;6329923;28;24431;-82
2024/03/04 04:06:35;;;;;;;1.95;0.80;;;;;;;;;;6331714;28;24425;-80
2024/03/04 04:09:38;;;;;;;2.30;0.90;;;;;;;;;;6324859;28;24897;-82
2024/03/04 04:12:40;;;;;;;2.53;1.08;;;;;;;;;;6321832;28;24829;-80
2024/03/04 04:15:42;;;;;;;2.37;0.83;;;;;;;;;;6334469;28;24859;-79
2024/03/04 04:18:44;;;;;;;2.08;0.90;;;;;;;;;;6321686;28;24438;-82
2024/03/04 04:21:45;;;;;;;2.28;0.90;;;;;;;;;;6322029;28;24423;-82
2024/03/04 04:24:48;;;;;;;1.40;0.70;;;;;;;;;;6321398;28;24430;-84
2024/03/04 04:27:50;;;;;;;2.00;0.80;;;;;;;;;;6325945;28;24429;-81
2024/03/04 04:30:52;;;;;;;2.07;0.80;;;;;;;;;;6322541;28;24422;-80
2024/03/04 04:33:54;;;;;;;2.08;1.00;;;;;;;;;;6323910;28;24650;-80
2024/03/04 04:36:57;;;;;;;3.10;0.95;;;;;;;;;;6325255;28;24422;-81
2024/03/04 04:40:00;;;;;;;2.40;1.05;;;;;;;;;;6326351;28;24433;-80
2024/03/04 04:43:02;;;;;;;2.03;1.10;;;;;;;;;;6328174;28;24414;-80
2024/03/04 04:46:04;;;;;;;1.30;0.90;;;;;;;;;;6319690;28;24429;-80
2024/03/04 04:49:06;;;;;;;1.60;0.87;;;;;;;;;;6320097;28;24440;-81
2024/03/04 04:52:08;;;;;;;3.88;1.02;;;;;;;;;;6323357;28;24766;-81
2024/03/04 04:55:11;;;;;;;2.00;1.00;;;;;;;;;;6319687;28;24422;-82
2024/03/04 04:58:14;;;;;;;2.35;0.98;;;;;;;;;;6309228;28;24419;-79
2024/03/04 05:01:26;;;;;;;2.30;1.10;;;;;;;;;;6316357;28;24535;-82
2024/03/04 05:04:28;;;;;;;3.40;1.15;;;;;;;;;;6312986;28;24422;-80
2024/03/04 05:07:29;;;;;;;3.17;1.10;;;;;;;;;;6319231;28;24426;-81
2024/03/04 05:10:37;;;;;;;3.43;1.30;;;;;;;;;;6319337;28;24439;-82
2024/03/04 05:13:39;;;;;;;3.43;1.40;;;;;;;;;;6316183;28;24810;-82
2024/03/04 05:16:40;;;;;;;2.33;1.25;;;;;;;;;;6320502;28;24415;-81
2024/03/04 05:19:42;;;;;;;2.40;1.30;;;;;;;;;;6314831;28;24409;-80
2024/03/04 05:22:44;;;;;;;3.38;1.40;;;;;;;;;;6325466;28;24410;-81
2024/03/04 05:25:48;;;;;;;3.05;1.50;;;;;;;;;;6323420;28;25020;-82
2024/03/04 05:28:50;;;;;;;2.70;1.40;;;;;;;;;;6322232;28;24410;-81
2024/03/04 05:31:53;;;;;;;3.03;1.50;;;;;;;;;;6328731;28;24409;-81
2024/03/04 05:34:54;;;;;;;4.03;1.65;;;;;;;;;;6319196;28;24436;-81
2024/03/04 05:37:56;;;;;;;3.45;1.50;;;;;;;;;;6317756;28;24425;-80
2024/03/04 05:40:59;;;;;;;2.30;1.40;;;;;;;;;;6322872;28;24510;-79
2024/03/04 05:44:01;;;;;;;2.37;1.50;;;;;;;;;;6319441;28;25922;-83
2024/03/04 05:47:03;;;;;;;3.67;1.63;;;;;;;;;;6320367;28;24395;-79
2024/03/04 05:50:06;;;;;;;2.30;1.40;;;;;;;;;;6331332;28;24417;-82
2024/03/04 05:53:07;;;;;;;3.38;1.50;;;;;;;;;;6321898;28;24620;-82
2024/03/04 05:56:12;;;;;;;2.88;1.70;;;;;;;;;;6315982;28;24422;-80
2024/03/04 05:59:14;;;;;;;2.90;1.75;;;;;;;;;;6320478;28;24442;-83
2024/03/04 06:02:16;;;;;;;3.08;1.77;;;;;;;;;;6322529;28;24422;-82
2024/03/04 06:05:18;;;;;;;4.60;1.80;;;;;;;;;;6321428;28;24415;-81
2024/03/04 06:08:19;;;;;;;2.90;1.70;;;;;;;;;;6319068;28;24623;-81
2024/03/04 06:11:22;;;;;;;3.47;1.80;;;;;;;;;;6321530;28;24606;-80
2024/03/04 06:14:24;;;;;;;3.75;1.90;;;;;;;;;;6318963;28;24421;-81
2024/03/04 06:17:26;;;;;;;3.30;1.95;;;;;;;;;;6319154;28;24417;-81
2024/03/04 06:20:28;;;;;;;3.05;2.00;;;;;;;;;;6319974;28;24427;-79
2024/03/04 06:23:30;;;;;;;3.17;1.90;;;;;;;;;;6317730;28;24430;-79
2024/03/04 06:26:33;;;;;;;3.67;2.40;;;;;;;;;;6319452;28;24441;-80
2024/03/04 06:29:35;;;;;;;3.85;2.40;;;;;;;;;;6318760;28;24914;-81
2024/03/04 06:32:37;;;;;;;3.72;2.60;;;;;;;;;;6320340;28;24432;-83
2024/03/04 06:35:39;;;;;;;3.25;2.60;;;;;;;;;;6316779;28;24418;-80
2024/03/04 06:38:41;;;;;;;7.05;2.85;;;;;;;;;;6315874;28;24690;-82
2024/03/04 06:41:44;;;;;;;3.80;2.97;;;;;;;;;;6319769;28;24797;-81
2024/03/04 06:44:48;;;;;;;4.55;3.17;;;;;;;;;;6317744;28;24423;-81
2024/03/04 06:47:50;;;;;;;4.45;3.42;;;;;;;;;;6317703;28;24625;-82
2024/03/04 06:50:52;;;;;;;6.55;3.65;;;;;;;;;;6321842;28;24429;-82
2024/03/04 06:53:54;;;;;;;5.85;3.72;;;;;;;;;;6319714;28;24467;-82
2024/03/04 06:56:57;;;;;;;6.40;4.03;;;;;;;;;;6320666;28;24516;-83
2024/03/04 06:59:59;;;;;;;7.05;4.28;;;;;;;;;;6322462;28;24460;-83
2024/03/04 07:03:00;;;;;;;5.75;4.10;;;;;;;;;;6319781;28;24421;-79
2024/03/04 07:06:02;;;;;;;6.10;4.32;;;;;;;;;;6331818;28;24840;-83
2024/03/04 07:09:04;;;;;;;5.97;4.10;;;;;;;;;;6307058;28;24418;-79
2024/03/04 07:12:08;;;;;;;6.40;4.00;;;;;;;;;;6318579;28;24426;-82
2024/03/04 07:15:11;;;;;;;6.07;4.18;;;;;;;;;;6322625;28;24702;-83
2024/03/04 07:18:12;;;;;;;7.60;4.03;;;;;;;;;;6320370;28;24987;-81
2024/03/04 07:21:15;;;;;;;5.97;3.97;;;;;;;;;;6325902;28;24441;-83
2024/03/04 07:24:17;;;;;;;4.90;3.60;;;;;;;;;;6321693;28;24433;-84
2024/03/04 07:27:20;;;;;;;6.40;3.67;;;;;;;;;;6323718;28;24433;-82
2024/03/04 07:30:23;;;;;;;7.20;4.50;;;;;;;;;;6316210;28;24517;-81
2024/03/04 07:33:24;;;;;;;5.90;3.80;;;;;;;;;;6317694;28;24481;-82
2024/03/04 07:36:26;;;;;;;8.43;4.23;;;;;;;;;;6320298;28;24426;-82
2024/03/04 07:39:28;;;;;;;6.10;4.20;;;;;;;;;;6321150;28;24438;-80
2024/03/04 07:42:31;;;;;;;6.60;4.35;;;;;;;;;;6329099;28;24420;-81
2024/03/04 07:45:33;;;;;;;5.70;4.13;;;;;;;;;;6325241;28;24424;-84
2024/03/04 07:48:35;;;;;;;7.97;4.40;;;;;;;;;;6326806;28;24458;-83
2024/03/04 07:51:36;;;;;;;6.43;4.30;;;;;;;;;;6324541;28;24420;-80
2024/03/04 07:54:38;;;;;;;5.83;4.50;;;;;;;;;;6324938;28;24435;-83
2024/03/04 07:57:42;;;;;;;7.40;5.10;;;;;;;;;;6325247;28;24422;-82
2024/03/04 08:00:44;;;;;;;6.72;5.25;;;;;;;;;;6322911;28;24712;-82
2024/03/04 08:03:46;;;;;;;8.00;4.95;;;;;;;;;;6321549;28;24426;-83
2024/03/04 08:06:48;;;;;;;6.40;4.80;;;;;;;;;;6313762;28;24610;-81
2024/03/04 08:09:50;;;;;;;6.10;5.07;;;;;;;;;;6316728;28;24584;-81
2024/03/04 08:12:53;;;;;;;8.40;4.72;;;;;;;;;;6322187;28;24533;-83
2024/03/04 08:15:56;;;;;;;7.67;4.63;;;;;;;;;;6322519;28;24460;-81
2024/03/04 08:18:58;;;;;;;6.75;5.05;;;;;;;;;;6323002;28;24465;-80
2024/03/04 08:22:00;;;;;;;6.95;4.80;;;;;;;;;;6323980;28;24422;-81
2024/03/04 08:25:03;;;;;;;6.60;4.63;;;;;;;;;;6324130;28;24410;-82
2024/03/04 08:28:09;;;;;;;7.88;4.65;;;;;;;;;;6319708;28;24434;-82
2024/03/04 08:31:12;;;;;;;8.02;4.78;;;;;;;;;;6324573;28;24449;-81
2024/03/04 08:34:14;;;;;;;6.95;4.50;;;;;;;;;;6317926;28;24431;-82
2024/03/04 08:37:16;;;;;;;6.50;4.82;;;;;;;;;;6322275;28;24824;-82
2024/03/04 08:40:18;;;;;;;7.95;4.95;;;;;;;;;;6329182;28;24511;-81
2024/03/04 08:43:21;;;;;;;6.50;4.97;;;;;;;;;;6318985;28;24411;-80
2024/03/04 08:46:23;;;;;;;7.95;5.57;;;;;;;;;;6323469;28;24426;-80
2024/03/04 08:49:25;;;;;;;7.88;5.38;;;;;;;;;;6326095;28;24437;-83
2024/03/04 08:52:27;;;;;;;9.02;5.28;;;;;;;;;;6322581;28;24432;-83
2024/03/04 08:55:29;;;;;;;6.47;5.18;;;;;;;;;;6322671;28;25025;-81
2024/03/04 08:58:33;;;;;;;6.43;3.17;;;;;;;;;;6321897;28;24530;-79
2024/03/04 09:01:34;;;;;;;4.50;2.13;;;;;;;;;;6326268;28;24515;-82
2024/03/04 09:04:36;;;;;;;3.53;2.20;;;;;;;;;;6331411;28;24437;-81
2024/03/04 09:07:38;;;;;;;4.57;2.30;;;;;;;;;;6332647;28;24418;-81
2024/03/04 09:10:40;;;;;;;4.75;2.10;;;;;;;;;;6318354;28;24410;-81
2024/03/04 09:13:43;;;;;;;3.47;2.25;;;;;;;;;;6320997;28;24482;-82
2024/03/04 09:16:45;;;;;;;4.38;2.40;;;;;;;;;;6321344;28;24876;-82
2024/03/04 09:19:47;;;;;;;4.65;2.40;;;;;;;;;;6326050;28;24422;-83
2024/03/04 09:22:49;;;;;;;4.70;2.13;;;;;;;;;;6326223;28;24408;-82
2024/03/04 09:25:51;;;;;;;3.93;2.30;;;;;;;;;;6327916;28;24414;-82
2024/03/04 09:28:54;;;;;;;2.97;2.20;;;;;;;;;;6319190;28;24407;-83
2024/03/04 09:31:56;;;;;;;6.80;2.75;;;;;;;;;;6318353;28;24765;-83
2024/03/04 09:34:57;;;;;;;3.38;2.10;;;;;;;;;;6320319;28;24993;-82
2024/03/04 09:37:59;;;;;;;2.90;2.00;;;;;;;;;;6318837;28;24460;-82
2024/03/04 09:41:02;;;;;;;3.07;1.80;;;;;;;;;;6316802;28;24507;-82
2024/03/04 09:44:06;;;;;;;5.20;2.30;;;;;;;;;;6312631;28;24410;-84
2024/03/04 09:47:08;;;;;;;3.83;2.28;;;;;;;;;;6319406;28;25000;-83
2024/03/04 09:50:12;;;;;;;3.47;2.20;;;;;;;;;;6325405;28;24414;-82
2024/03/04 09:53:15;;;;;;;3.80;2.50;;;;;;;;;;6327767;28;24410;-81
2024/03/04 09:56:18;;;;;;;4.37;2.77;;;;;;;;;;6319576;28;24805;-82
2024/03/04 09:59:22;;;;;;;4.40;2.33;;;;;;;;;;6325268;28;24481;-83
2024/03/04 10:02:24;;;;;;;6.07;2.45;;;;;;;;;;6322881;28;24410;-84
2024/03/04 10:05:26;;;;;;;5.38;2.72;;;;;;;;;;6320485;28;24607;-84
2024/03/04 10:08:27;;;;;;;5.32;2.47;;;;;;;;;;6323083;28;24489;-83
2024/03/04 10:11:29;;;;;;;5.35;2.55;;;;;;;;;;6322520;28;24441;-80
2024/03/04 10:14:32;;;;;;;3.53;2.67;;;;;;;;;;6324286;28;24427;-82
2024/03/04 10:17:35;;;;;;;4.53;3.15;;;;;;;;;;6320118;28;24424;-83
2024/03/04 10:20:37;;;;;;;5.78;3.20;;;;;;;;;;6322260;28;24438;-82
2024/03/04 10:23:38;;;;;;;7.13;3.28;;;;;;;;;;6321522;28;25082;-82
2024/03/04 10:26:41;;;;;;;4.47;3.03;;;;;;;;;;6320229;28;24429;-80
2024/03/04 10:29:44;;;;;;;4.70;3.20;;;;;;;;;;6318737;28;24442;-83
2024/03/04 10:32:47;;;;;;;5.30;3.37;;;;;;;;;;6323869;28;24506;-83
2024/03/04 10:35:56;;;;;;;6.55;3.70;;;;;;;;;;6323950;28;24439;-83
2024/03/04 10:38:58;;;;;;;5.47;3.70;;;;;;;;;;6320831;28;24438;-82
2024/03/04 10:42:02;;;;;;;5.38;3.65;;;;;;;;;;6320010;28;24437;-81
2024/03/04 10:45:07;;;;;;;7.15;3.97;;;;;;;;;;6319581;28;24457;-82
2024/03/04 10:48:09;;;;;;;7.65;4.35;;;;;;;;;;6321754;28;24798;-81
2024/03/04 10:51:11;;;;;;;6.22;4.53;;;;;;;;;;6323073;28;24425;-81
2024/03/04 10:54:13;;;;;;;6.68;4.63;;;;;;;;;;6310390;28;24442;-82
2024/03/04 10:57:26;;;;;;;7.22;4.60;;;;;;;;;;6320756;28;24430;-80
2024/03/04 11:00:30;;;;;;;6.63;4.85;;;;;;;;;;6322730;28;24430;-83
2024/03/04 11:03:33;;;;;;;6.80;4.60;;;;;;;;;;6317751;28;24817;-83
2024/03/04 11:06:35;;;;;;;6.97;4.80;;;;;;;;;;6319962;28;24497;-82
2024/03/04 11:09:38;;;;;;;7.80;5.17;;;;;;;;;;6315461;28;24417;-82
2024/03/04 11:12:40;;;;;;;8.30;5.85;;;;;;;;;;6326261;28;24857;-83
2024/03/04 11:15:51;;;;;;;11.02;7.03;;;;;;;;;;6313243;28;24410;-82
2024/03/04 11:19:00;;;;;;;10.60;7.60;;;;;;;;;;6322296;28;24430;-81
2024/03/04 11:22:03;;;;;;;11.65;8.20;;;;;;;;;;6324589;28;24458;-81
2024/03/04 11:25:06;;;;;;;13.20;8.40;;;;;;;;;;6318303;28;24487;-82
2024/03/04 11:28:08;;;;;;;12.90;8.82;;;;;;;;;;6328212;28;24435;-82
2024/03/04 11:31:12;;;;;;;12.55;8.80;;;;;;;;;;6323810;28;24471;-83
2024/03/04 11:34:14;;;;;;;10.65;8.30;;;;;;;;;;6321990;28;24426;-81
2024/03/04 11:37:17;;;;;;;9.43;6.63;;;;;;;;;;6326541;28;24427;-82
2024/03/04 11:40:23;;;;;;;9.70;7.30;;;;;;;;;;6323802;28;24419;-83
2024/03/04 11:43:44;;;;;;;10.55;7.30;;;;;;;;;;6321479;28;24426;-82
2024/03/04 11:46:47;;;;;;;9.33;6.73;;;;;;;;;;6325209;28;24418;-81
2024/03/04 11:49:50;;;;;;;8.85;6.30;;;;;;;;;;6326004;28;24416;-81
2024/03/04 11:52:55;;;;;;;9.67;6.50;;;;;;;;;;6325017;28;24437;-83
2024/03/04 11:55:57;;;;;;;8.83;6.00;;;;;;;;;;6327473;28;24470;-83
2024/03/04 11:58:58;;;;;;;9.30;5.90;;;;;;;;;;6326953;28;25033;-82
2024/03/04 12:02:08;;;;;;;9.38;6.40;;;;;;;;;;6322262;28;24415;-82
2024/03/04 12:05:10;;;;;;;7.45;5.70;;;;;;;;;;6318064;28;24429;-82
2024/03/04 12:08:12;;;;;;;9.30;6.47;;;;;;;;;;6321781;28;24833;-83
2024/03/04 12:11:15;;;;;;;8.07;6.00;;;;;;;;;;6330034;28;24632;-82
2024/03/04 12:14:17;;;;;;;7.75;6.00;;;;;;;;;;6323128;28;24461;-80
2024/03/04 12:17:22;;;;;;;7.10;6.20;;;;;;;;;;6325894;28;24772;-83
2024/03/04 12:20:24;;;;;;;8.00;6.53;;;;;;;;;;6324339;28;24478;-82
2024/03/04 12:23:28;;;;;;;7.70;6.38;;;;;;;;;;6331664;28;24410;-82
2024/03/04 12:26:30;;;;;;;8.93;5.97;;;;;;;;;;6320355;28;24810;-82
2024/03/04 12:29:32;;;;;;;8.75;5.28;;;;;;;;;;6317051;28;24813;-83
2024/03/04 12:32:35;;;;;;;6.90;5.15;;;;;;;;;;6315093;28;24427;-82
2024/03/04 12:35:37;;;;;;;10.57;5.35;;;;;;;;;;6317060;28;24432;-81
2024/03/04 12:38:39;;;;;;;9.50;5.43;;;;;;;;;;6317680;28;24432;-84
2024/03/04 12:41:41;;;;;;;6.22;4.15;;;;;;;;;;6317877;28;24438;-82
2024/03/04 12:44:42;;;;;;;6.10;4.30;;;;;;;;;;6317655;28;24414;-82
2024/03/04 12:47:48;;;;;;;5.18;3.70;;;;;;;;;;6318051;28;24428;-82
2024/03/04 12:50:50;;;;;;;5.63;3.77;;;;;;;;;;6315536;28;24450;-81
2024/03/04 12:53:52;;;;;;;8.60;4.32;;;;;;;;;;6316663;28;24417;-82
2024/03/04 12:56:54;;;;;;;8.55;4.20;;;;;;;;;;6315172;28;24428;-80
2024/03/04 12:59:58;;;;;;;6.57;3.97;;;;;;;;;;6317194;28;24568;-84
2024/03/04 13:03:01;;;;;;;5.32;3.25;;;;;;;;;;6315956;28;24833;-82
2024/03/04 13:06:03;;;;;;;8.88;3.97;;;;;;;;;;6317168;28;24431;-82
2024/03/04 13:09:06;;;;;;;7.00;3.80;;;;;;;;;;6316013;28;24850;-81
2024/03/04 13:12:09;;;;;;;7.28;4.03;;;;;;;;;;6317875;28;24617;-83
2024/03/04 13:15:12;;;;;;;8.35;3.70;;;;;;;;;;6316094;28;24843;-83
2024/03/04 13:18:16;;;;;;;5.65;3.42;;;;;;;;;;6312436;28;24613;-84
2024/03/04 13:21:17;;;;;;;5.53;3.33;;;;;;;;;;6314897;28;24433;-82
2024/03/04 13:24:20;;;;;;;6.25;3.78;;;;;;;;;;6317559;28;24859;-81
2024/03/04 13:27:22;;;;;;;4.85;3.45;;;;;;;;;;6316536;28;24510;-82
2024/03/04 13:30:24;;;;;;;4.28;3.38;;;;;;;;;;6313902;28;24532;-85
2024/03/04 13:33:27;;;;;;;4.90;3.25;;;;;;;;;;6315067;28;24520;-82
2024/03/04 13:36:29;;;;;;;5.93;3.30;;;;;;;;;;6312912;28;24496;-82
2024/03/04 13:39:30;;;;;;;3.97;3.40;;;;;;;;;;6289748;28;24441;-82
2024/03/04 13:42:32;;;;;;;6.55;3.90;;;;;;;;;;6314564;28;24441;-81
2024/03/04 13:45:34;;;;;;;5.68;3.67;;;;;;;;;;6287929;28;24438;-82
2024/03/04 13:48:37;;;;;;;6.90;3.80;;;;;;;;;;6314437;28;24706;-83
2024/03/04 13:51:39;;;;;;;6.47;3.58;;;;;;;;;;6314594;28;24425;-83
2024/03/04 13:54:41;;;;;;;4.82;3.20;;;;;;;;;;6315117;28;24525;-82
2024/03/04 13:57:43;;;;;;;4.65;3.45;;;;;;;;;;6314728;28;24423;-84
2024/03/04 14:00:48;;;;;;;5.57;3.00;;;;;;;;;;6318208;28;24433;-82
2024/03/04 14:03:51;;;;;;;4.90;3.13;;;;;;;;;;6314146;28;24426;-82
2024/03/04 14:06:53;;;;;;;6.18;3.15;;;;;;;;;;6315242;28;24422;-83
2024/03/04 14:09:56;;;;;;;4.72;3.17;;;;;;;;;;6316358;28;24433;-81
2024/03/04 14:12:57;;;;;;;5.30;2.90;;;;;;;;;;6312628;28;24774;-82
2024/03/04 14:15:59;;;;;;;6.35;3.38;;;;;;;;;;6313369;28;24545;-81
2024/03/04 14:19:03;;;;;;;4.00;2.50;;;;;;;;;;6313283;28;24418;-83
2024/03/04 14:22:05;;;;;;;6.05;3.17;;;;;;;;;;6316899;28;24425;-84
2024/03/04 14:25:11;;;;;;;5.17;3.10;;;;;;;;;;6314891;28;24667;-83
2024/03/04 14:28:17;;;;;;;5.18;3.08;;;;;;;;;;6317922;28;24445;-82
2024/03/04 14:31:19;;;;;;;5.37;3.07;;;;;;;;;;6322380;28;24418;-82
2024/03/04 14:34:26;;;;;;;5.32;2.60;;;;;;;;;;6321393;28;24424;-82
2024/03/04 14:37:28;;;;;;;5.55;2.97;;;;;;;;;;6323493;28;24441;-85
2024/03/04 14:40:30;;;;;;;5.03;2.42;;;;;;;;;;6319235;28;24449;-82
2024/03/04 14:43:37;;;;;;;4.47;2.40;;;;;;;;;;6324053;28;24453;-83
2024/03/04 14:46:41;;;;;;;5.28;2.75;;;;;;;;;;6316902;28;24442;-83
2024/03/04 14:49:44;;;;;;;15.48;9.43;;;;;;;;;;6325037;28;24406;-82
2024/03/04 14:52:46;;;;;;;6.03;2.90;;;;;;;;;;6328084;28;24511;-82
2024/03/04 14:55:48;;;;;;;8.47;4.43;;;;;;;;;;6324179;28;24444;-82
2024/03/04 15:02:35;;;;;;;19.58;12.15;;;;;;;;;;6316863;28;24415;-82
2024/03/04 15:05:39;;;;;;;6.97;4.55;;;;;;;;;;6320364;28;24494;-83
2024/03/04 15:08:44;;;;;;;217.43;123.20;;;;;;;;;;6314244;28;24420;-82
2024/03/04 15:11:47;;;;;;;4.35;2.58;;;;;;;;;;6321667;28;24415;-83
2024/03/04 15:14:54;;;;;;;4.50;2.60;;;;;;;;;;6319119;28;24427;-82
2024/03/04 15:17:57;;;;;;;4.57;2.42;;;;;;;;;;6324358;28;24425;-83
2024/03/04 15:21:01;;;;;;;4.95;2.20;;;;;;;;;;6320881;28;24705;-82
2024/03/04 15:24:04;;;;;;;3.63;2.50;;;;;;;;;;6320318;28;24438;-82
2024/03/04 15:27:09;;;;;;;5.03;2.88;;;;;;;;;;6309536;28;24620;-82
2024/03/04 15:30:13;;;;;;;5.13;2.25;;;;;;;;;;6288044;28;24474;-82
2024/03/04 15:33:15;;;;;;;4.07;2.72;;;;;;;;;;6289788;28;24434;-81
2024/03/04 15:36:23;;;;;;;5.23;2.50;;;;;;;;;;6288280;28;24521;-82
2024/03/04 15:39:33;;;;;;;5.93;2.60;;;;;;;;;;6289640;28;24896;-82
2024/03/04 15:42:36;;;;;;;5.25;2.45;;;;;;;;;;6291694;28;24430;-81
2024/03/04 15:45:41;;;;;;;4.78;2.42;;;;;;;;;;6288209;28;24430;-82
2024/03/04 15:48:43;;;;;;;4.45;2.33;;;;;;;;;;6290955;28;24476;-83
2024/03/04 15:51:47;;;;;;;4.20;2.20;;;;;;;;;;6288627;28;24429;-83
2024/03/04 15:54:49;;;;;;;2.60;1.77;;;;;;;;;;6289236;28;24430;-83
2024/03/04 15:57:53;;;;;;;3.17;1.90;;;;;;;;;;6293627;28;24526;-84
2024/03/04 16:01:04;;;;;;;3.20;1.60;;;;;;;;;;6295595;28;24642;-82
2024/03/04 16:04:17;;;;;;;2.40;1.58;;;;;;;;;;6291274;28;24446;-82
2024/03/04 16:07:20;;;;;;;2.38;1.70;;;;;;;;;;6291624;28;24625;-81
2024/03/04 16:10:24;;;;;;;36.87;20.17;;;;;;;;;;6291644;28;24615;-83
2024/03/04 16:13:29;;;;;;;83.20;46.33;;;;;;;;;;6293965;28;24506;-82
2024/03/04 16:16:34;;;;;;;69.18;35.40;;;;;;;;;;6297192;28;24468;-81
2024/03/04 16:19:45;;;;;;;46.97;23.63;;;;;;;;;;6296294;28;24560;-82
2024/03/04 16:22:48;;;;;;;61.90;30.35;;;;;;;;;;6291004;28;24422;-81
2024/03/04 16:25:50;;;;;;;7.47;3.78;;;;;;;;;;6290125;28;24403;-82
2024/03/04 16:29:03;;;;;;;4.65;2.20;;;;;;;;;;6325096;28;24489;-82
2024/03/04 16:32:10;;;;;;;4.68;2.10;;;;;;;;;;6324139;28;24612;-83
2024/03/04 16:35:15;;;;;;;4.88;2.10;;;;;;;;;;6324100;28;24413;-82
2024/03/04 16:38:36;;;;;;;4.50;2.15;;;;;;;;;;6323134;28;24420;-83
2024/03/04 16:41:48;;;;;;;4.40;2.08;;;;;;;;;;6318773;28;24641;-84
2024/03/04 16:44:57;;;;;;;3.10;1.63;;;;;;;;;;6324547;28;24418;-82
2024/03/04 16:48:17;;;;;;;2.70;1.38;;;;;;;;;;6328885;28;24500;-83
2024/03/04 16:54:42;;;;;;;2.13;1.20;;;;;;;;;;6304686;28;24410;-84
2024/03/04 16:58:09;;;;;;;2.10;1.30;;;;;;;;;;6296353;28;24437;-84
2024/03/04 17:01:17;;;;;;;2.75;1.60;;;;;;;;;;6310476;28;24510;-84
2024/03/04 17:04:23;;;;;;;2.65;1.30;;;;;;;;;;6316876;28;24439;-82
2024/03/04 17:07:27;;;;;;;3.10;1.70;;;;;;;;;;6324927;28;24743;-82
2024/03/04 17:10:39;;;;;;;3.57;1.47;;;;;;;;;;6318480;28;24441;-82
2024/03/04 17:13:45;;;;;;;3.75;1.50;;;;;;;;;;6315173;28;24419;-82
2024/03/04 17:16:48;;;;;;;5.05;1.65;;;;;;;;;;6318154;28;24436;-84
2024/03/04 17:19:50;;;;;;;1.80;1.35;;;;;;;;;;6315285;28;24486;-81
2024/03/04 17:23:01;;;;;;;3.65;1.58;;;;;;;;;;6321786;28;24459;-82
2024/03/04 17:26:04;;;;;;;2.53;1.70;;;;;;;;;;6316958;28;24439;-81
2024/03/04 17:29:09;;;;;;;5.70;1.70;;;;;;;;;;6317573;28;24409;-85
2024/03/04 17:32:13;;;;;;;4.97;2.13;;;;;;;;;;6321642;28;24614;-84
2024/03/04 17:35:29;;;;;;;3.40;1.48;;;;;;;;;;6319615;28;24497;-84
2024/03/04 17:38:32;;;;;;;4.80;2.57;;;;;;;;;;6321251;28;24487;-84
2024/03/04 17:41:35;;;;;;;4.60;1.90;;;;;;;;;;6325142;28;24648;-81
2024/03/04 17:44:43;;;;;;;3.30;1.73;;;;;;;;;;6326908;28;24426;-83
2024/03/04 17:47:45;;;;;;;3.67;1.73;;;;;;;;;;6325093;28;24423;-84
2024/03/04 17:50:52;;;;;;;5.15;2.13;;;;;;;;;;6322822;28;24844;-83
2024/03/04 17:53:54;;;;;;;2.88;1.70;;;;;;;;;;6317215;28;24426;-83
2024/03/04 17:56:57;;;;;;;3.67;1.83;;;;;;;;;;6329038;28;24656;-83
2024/03/04 18:00:11;;;;;;;4.65;2.08;;;;;;;;;;6323707;28;24425;-85
2024/03/04 18:03:13;;;;;;;4.35;1.98;;;;;;;;;;6312923;28;24831;-83
2024/03/04 18:06:15;;;;;;;6.10;2.33;;;;;;;;;;6320769;28;24560;-83
2024/03/04 18:09:22;;;;;;;4.60;2.28;;;;;;;;;;6319352;28;24432;-83
2024/03/04 18:12:30;;;;;;;6.30;2.57;;;;;;;;;;6326016;28;24460;-81
2024/03/04 18:15:32;;;;;;;4.70;2.50;;;;;;;;;;6327275;28;24574;-82
2024/03/04 18:18:35;;;;;;;4.40;2.47;;;;;;;;;;6322772;28;24429;-83
2024/03/04 18:21:37;;;;;;;5.55;3.10;;;;;;;;;;6328242;28;24420;-82
2024/03/04 18:28:10;;;;;;;5.87;3.00;;;;;;;;;;6316891;28;24461;-82
2024/03/04 18:31:24;;;;;;;4.95;2.80;;;;;;;;;;6320670;28;24492;-83
2024/03/04 18:34:43;;;;;;;5.20;2.90;;;;;;;;;;6322614;28;24526;-82
2024/03/04 18:37:45;;;;;;;5.65;2.92;;;;;;;;;;6321354;28;24425;-82
2024/03/04 18:40:50;;;;;;;6.13;3.40;;;;;;;;;;6318407;28;24411;-81
2024/03/04 18:43:54;;;;;;;7.03;4.03;;;;;;;;;;6318295;28;24495;-82